Manage, Belgium
Current Conditions -  °F | °C
As of 2:20 PM on Friday 31 Oct 2014 (Local Time) from EBCI Reporting Station
Clear Clear  
Wind Chill: 66°   Ceiling: Unl
Heat Index: 66°   Visibility: 6mi
Dew Point: 52°   Wind: 8mph
Humidity: 60%   Direction: 180°S
Pressure: 30.18"   Gusts: NA
Location:  50.5°N, 4.24°E
Report Text: EBCI 311320Z 18007KT CAVOK 19/11 Q1022 NOSIG
Loading
Personal Weather Stations






























Interactive Weather Map
Tropical Storm Tracking
New forecast layout! Learn more

10-Day Weather Forecast

Advertisements
Track Severe Weather on mobile